Time;durP1;ratioP1;P1;durP2;ratioP2;P2;SDS_P1;SDS_P2;PMS_P1;PMS_P2;Temp;Humidity;BMP_temperature;BMP_pressure;BME280_temperature;BME280_humidity;BME280_pressure;Samples;Min_cycle;Max_cycle;Signal;HPM_P1;HPM_P2
2023/01/06 00:02:37;;;;;;;1999.90;999.90;;;;;;;9.99;100.00;101734.72;10298615;28;20055;-75
2023/01/06 00:07:42;;;;;;;1999.90;999.90;;;;;;;10.13;100.00;101742.00;10298860;28;20391;-75
2023/01/06 00:12:46;;;;;;;1999.90;999.90;;;;;;;9.96;100.00;101727.00;10299384;28;20058;-75
2023/01/06 00:17:48;;;;;;;1999.90;999.90;;;;;;;10.09;100.00;101712.50;10313167;28;20130;-75
2023/01/06 00:22:50;;;;;;;1999.90;999.90;;;;;;;10.10;100.00;101715.97;10298449;28;20430;-75
2023/01/06 00:27:54;;;;;;;1999.90;999.90;;;;;;;10.01;100.00;101712.81;10298104;28;20414;-75
2023/01/06 00:32:56;;;;;;;1999.90;999.90;;;;;;;10.02;100.00;101713.69;10297133;28;20076;-75
2023/01/06 00:37:59;;;;;;;1999.90;999.90;;;;;;;10.02;100.00;101716.31;10298117;28;20046;-75
2023/01/06 00:43:01;;;;;;;1999.90;999.90;;;;;;;10.09;100.00;101716.91;10313438;28;20054;-75
2023/01/06 00:48:04;;;;;;;1999.90;999.90;;;;;;;10.08;100.00;101710.78;10304762;22;20038;-77
2023/01/06 00:53:06;;;;;;;1999.90;999.90;;;;;;;10.22;100.00;101697.13;10297426;28;20441;-77
2023/01/06 00:58:09;;;;;;;1999.90;999.90;;;;;;;10.16;100.00;101700.88;10297139;28;20449;-77
2023/01/06 01:03:11;;;;;;;1999.90;999.90;;;;;;;10.23;100.00;101707.53;10294847;28;20074;-78
2023/01/06 01:08:13;;;;;;;1999.90;999.90;;;;;;;10.12;100.00;101696.69;10296808;28;20109;-77
2023/01/06 01:13:16;;;;;;;1999.90;999.90;;;;;;;10.10;100.00;101713.34;10300885;28;20050;-77
2023/01/06 01:18:18;;;;;;;1999.90;999.90;;;;;;;10.16;100.00;101703.50;10351579;28;20461;-77
2023/01/06 01:23:20;;;;;;;1999.90;999.90;;;;;;;10.14;100.00;101704.47;10320122;28;20374;-77
2023/01/06 01:28:23;;;;;;;1999.90;999.90;;;;;;;10.14;100.00;101692.25;10296532;28;20060;-77
2023/01/06 01:33:25;;;;;;;1999.90;999.90;;;;;;;10.09;100.00;101696.81;10294885;28;20051;-76
2023/01/06 01:38:28;;;;;;;1999.90;999.90;;;;;;;10.24;100.00;101692.72;10310476;28;20050;-77
2023/01/06 01:43:45;;;;;;;1999.90;999.90;;;;;;;10.21;100.00;101675.34;10309839;28;20057;-77
2023/01/06 01:48:47;;;;;;;115.03;109.93;;;;;;;10.26;100.00;101679.56;10294967;28;20494;-77
2023/01/06 01:53:52;;;;;;;123.90;118.38;;;;;;;10.11;100.00;101676.66;10295253;28;20055;-77
2023/01/06 01:59:13;;;;;;;106.40;101.75;;;;;;;10.20;100.00;101676.28;10309792;28;20104;-77
2023/01/06 02:04:16;;;;;;;114.22;109.20;;;;;;;10.39;100.00;101673.78;10312425;28;20086;-77
2023/01/06 02:09:23;;;;;;;99.40;95.07;;;;;;;10.12;100.00;101670.53;10348627;28;20050;-78
2023/01/06 02:14:27;;;;;;;103.28;98.75;;;;;;;10.12;100.00;101662.69;10335258;28;20129;-77
2023/01/06 02:19:48;;;;;;;110.18;105.38;;;;;;;10.14;100.00;101663.47;10312019;28;20057;-77
2023/01/06 02:25:32;;;;;;;97.55;93.32;;;;;;;10.22;100.00;101653.53;10266302;28;20058;-77
2023/01/06 02:31:10;;;;;;;95.85;91.70;;;;;;;10.15;100.00;101636.34;10247555;28;20470;-77
2023/01/06 02:36:15;;;;;;;96.95;92.75;;;;;;;10.04;100.00;101641.22;10308407;28;20461;-77
2023/01/06 02:41:56;;;;;;;103.18;98.68;;;;;;;10.03;100.00;101632.47;10294708;28;20047;-77
2023/01/06 02:47:08;;;;;;;97.95;93.68;;;;;;;10.27;100.00;101616.69;10271581;28;20062;-77
2023/01/06 02:52:40;;;;;;;97.13;92.93;;;;;;;10.10;100.00;101609.53;10308408;28;20511;-77
2023/01/06 02:58:06;;;;;;;97.32;93.10;;;;;;;10.22;100.00;101593.31;10306719;28;20054;-77
2023/01/06 03:03:18;;;;;;;100.90;96.50;;;;;;;10.25;100.00;101575.78;10327486;28;20051;-78
2023/01/06 03:08:25;;;;;;;82.40;78.90;;;;;;;10.15;100.00;101578.78;10341656;28;20130;-77
2023/01/06 03:13:39;;;;;;;88.82;85.00;;;;;;;10.36;100.00;101581.44;10356570;28;20548;-78
2023/01/06 03:18:43;;;;;;;100.13;95.78;;;;;;;10.15;100.00;101575.31;10356956;28;20054;-77
2023/01/06 03:23:46;;;;;;;97.13;92.93;;;;;;;10.05;100.00;101577.47;10320502;28;20405;-77
2023/01/06 03:28:48;;;;;;;129.68;123.88;;;;;;;10.32;100.00;101575.50;10301202;28;20050;-77
2023/01/06 03:34:12;;;;;;;126.90;121.28;;;;;;;10.04;100.00;101566.19;10301222;28;20051;-77
2023/01/06 03:39:18;;;;;;;104.90;100.30;;;;;;;10.22;100.00;101548.84;10315145;28;20066;-77
2023/01/06 03:44:37;;;;;;;106.47;101.82;;;;;;;10.27;100.00;101572.19;10314324;28;20074;-77
2023/01/06 03:50:05;;;;;;;121.95;116.53;;;;;;;10.12;100.00;101557.13;10336269;28;20417;-77
2023/01/06 03:55:13;;;;;;;103.38;98.88;;;;;;;10.22;100.00;101554.06;10355965;28;20042;-77
2023/01/06 04:00:29;;;;;;;115.30;110.22;;;;;;;10.11;100.00;101543.22;10339539;28;20058;-77
2023/01/06 04:05:31;;;;;;;114.18;109.18;;;;;;;10.28;100.00;101546.88;10321088;28;20053;-77
2023/01/06 04:10:33;;;;;;;117.53;112.32;;;;;;;10.16;100.00;101541.25;10312245;28;20426;-77
2023/01/06 04:15:36;;;;;;;114.55;109.47;;;;;;;10.26;100.00;101539.06;10299480;28;20047;-77
2023/01/06 04:20:38;;;;;;;115.15;110.05;;;;;;;10.10;100.00;101538.88;10299255;28;20057;-77
2023/01/06 04:25:40;;;;;;;107.07;102.38;;;;;;;10.08;100.00;101529.41;10329907;28;20054;-77
2023/01/06 04:30:46;;;;;;;106.30;101.65;;;;;;;10.12;100.00;101510.03;10331151;28;20082;-77
2023/01/06 04:35:48;;;;;;;90.97;87.03;;;;;;;10.39;100.00;101505.41;10297659;28;20058;-77
2023/01/06 04:40:50;;;;;;;100.72;96.32;;;;;;;10.11;100.00;101493.50;10313605;28;20078;-77
2023/01/06 04:45:53;;;;;;;87.18;83.43;;;;;;;10.12;100.00;101478.63;10297952;28;20051;-77
2023/01/06 04:51:06;;;;;;;101.20;96.78;;;;;;;10.08;100.00;101466.63;10297270;28;20125;-77
2023/01/06 04:56:10;;;;;;;102.30;97.82;;;;;;;10.15;100.00;101458.41;10312447;28;20059;-77
2023/01/06 05:01:13;;;;;;;89.70;85.85;;;;;;;10.09;100.00;101453.47;10297733;28;20058;-77
2023/01/06 05:06:15;;;;;;;92.57;88.57;;;;;;;9.92;100.00;101450.75;10325674;28;20051;-77
2023/01/06 05:11:23;;;;;;;89.68;85.80;;;;;;;10.17;100.00;101437.41;10296783;28;20402;-77
2023/01/06 05:16:32;;;;;;;83.93;80.32;;;;;;;9.99;100.00;101418.19;10295530;28;20054;-77
2023/01/06 05:21:35;;;;;;;89.55;85.65;;;;;;;9.97;100.00;101425.22;10295802;28;20050;-77
2023/01/06 05:26:37;;;;;;;101.00;96.60;;;;;;;10.06;100.00;101421.38;10295029;28;20054;-77
2023/01/06 05:31:39;;;;;;;89.57;85.68;;;;;;;10.09;100.00;101429.09;10296716;28;20054;-77
2023/01/06 05:36:42;;;;;;;84.95;81.28;;;;;;;10.06;100.00;101431.84;10294583;28;20467;-77
2023/01/06 05:41:44;;;;;;;91.43;87.45;;;;;;;10.06;100.00;101421.38;10294636;28;20057;-77
2023/01/06 05:46:47;;;;;;;97.80;93.57;;;;;;;10.04;100.00;101429.28;10270682;28;20047;-77
2023/01/06 05:51:49;;;;;;;94.22;90.13;;;;;;;10.07;100.00;101425.66;10270067;28;20059;-77
2023/01/06 05:56:51;;;;;;;96.20;92.03;;;;;;;10.19;100.00;101425.97;10270573;28;20050;-77
2023/01/06 06:01:54;;;;;;;97.32;93.07;;;;;;;10.06;100.00;101435.28;10339126;28;20057;-77
2023/01/06 06:06:56;;;;;;;94.10;90.00;;;;;;;10.29;100.00;101438.63;10309521;28;20050;-77
2023/01/06 06:11:58;;;;;;;96.93;92.68;;;;;;;10.21;100.00;101439.00;10326778;28;20047;-77
2023/01/06 06:17:01;;;;;;;92.10;88.10;;;;;;;10.13;100.00;101447.16;10331868;28;20046;-77
2023/01/06 06:22:03;;;;;;;87.75;83.95;;;;;;;10.30;100.00;101432.47;10329931;28;20058;-77
2023/01/06 06:27:05;;;;;;;86.40;82.70;;;;;;;10.14;100.00;101430.56;10294577;28;20047;-78
2023/01/06 06:32:08;;;;;;;88.40;84.60;;;;;;;10.00;100.00;101425.97;10323613;28;20497;-77
2023/01/06 06:37:10;;;;;;;74.32;71.13;;;;;;;10.13;100.00;101422.78;10349049;28;20062;-78
2023/01/06 06:42:13;;;;;;;80.05;76.63;;;;;;;10.06;100.00;101410.91;10324663;28;20054;-78
2023/01/06 06:47:16;;;;;;;79.90;76.47;;;;;;;10.20;100.00;101442.50;10311686;28;20058;-77
2023/01/06 06:52:18;;;;;;;95.13;91.00;;;;;;;10.04;100.00;101434.53;10316677;28;20403;-77
2023/01/06 06:57:20;;;;;;;94.85;90.75;;;;;;;10.09;100.00;101436.94;10308951;28;20047;-77
2023/01/06 07:02:23;;;;;;;95.75;91.63;;;;;;;10.07;100.00;101428.28;10290701;28;20051;-77
2023/01/06 07:07:25;;;;;;;84.47;80.85;;;;;;;10.20;100.00;101427.69;10332895;28;20113;-77
2023/01/06 07:12:28;;;;;;;52.33;50.13;;;;;;;10.08;100.00;101437.84;10304472;28;20058;-77
2023/01/06 07:17:30;;;;;;;1999.90;999.90;;;;;;;10.13;100.00;101446.34;10308421;28;20054;-77
2023/01/06 07:22:35;;;;;;;1999.90;999.90;;;;;;;10.00;100.00;101451.25;10292496;28;20047;-77
2023/01/06 07:27:37;;;;;;;1999.90;999.90;;;;;;;9.98;100.00;101460.94;10332972;28;20050;-77
2023/01/06 07:32:40;;;;;;;1999.90;999.90;;;;;;;9.86;100.00;101454.50;10342343;28;20121;-77
2023/01/06 07:37:42;;;;;;;1999.90;999.90;;;;;;;9.97;100.00;101465.34;10295283;28;20058;-78
2023/01/06 07:42:46;;;;;;;1999.90;999.90;;;;;;;9.81;100.00;101474.75;10294715;28;20429;-77
2023/01/06 07:47:48;;;;;;;1509.72;759.10;;;;;;;10.10;100.00;101475.25;10324180;28;20054;-77
2023/01/06 07:52:50;;;;;;;1999.90;999.90;;;;;;;9.98;100.00;101485.34;10336811;28;20108;-77
2023/01/06 07:57:53;;;;;;;1999.90;999.90;;;;;;;9.98;100.00;101484.50;10311566;28;20129;-78
2023/01/06 08:02:55;;;;;;;1999.90;999.90;;;;;;;9.85;100.00;101487.66;10305904;28;20054;-76
2023/01/06 08:07:58;;;;;;;1999.90;999.90;;;;;;;9.86;100.00;101504.19;10299616;28;20053;-76
2023/01/06 08:13:01;;;;;;;1999.90;999.90;;;;;;;9.90;100.00;101510.13;10297711;28;20387;-76
2023/01/06 08:18:03;;;;;;;1999.90;999.90;;;;;;;9.84;100.00;101530.41;10299500;28;20055;-75
2023/01/06 08:23:06;;;;;;;1999.90;999.90;;;;;;;9.97;100.00;101535.09;10314122;28;20145;-76
2023/01/06 08:28:08;;;;;;;1999.90;999.90;;;;;;;9.81;100.00;101561.06;10297793;28;20051;-76
2023/01/06 08:33:12;;;;;;;1999.90;999.90;;;;;;;9.87;100.00;101563.44;10298157;28;20047;-76
2023/01/06 08:38:14;;;;;;;1999.90;999.90;;;;;;;9.96;100.00;101560.41;10298679;28;20047;-76
2023/01/06 08:43:16;;;;;;;1999.90;999.90;;;;;;;10.10;100.00;101572.06;10306295;28;20054;-76
2023/01/06 08:48:19;;;;;;;1999.90;999.90;;;;;;;9.99;100.00;101580.38;10315186;28;20104;-76
2023/01/06 08:53:22;;;;;;;1999.90;999.90;;;;;;;10.04;100.00;101588.88;10282998;28;20062;-76
2023/01/06 08:58:25;;;;;;;1999.90;999.90;;;;;;;10.18;100.00;101588.28;10297119;28;20043;-76
2023/01/06 09:03:27;;;;;;;1999.90;999.90;;;;;;;10.06;100.00;101597.50;10296962;28;20442;-77
2023/01/06 09:08:30;;;;;;;1999.90;999.90;;;;;;;10.02;100.00;101616.88;10301614;28;20449;-77
2023/01/06 09:13:32;;;;;;;1999.90;999.90;;;;;;;10.03;100.00;101626.41;10311022;28;20445;-77
2023/01/06 09:18:35;;;;;;;1999.90;999.90;;;;;;;10.21;100.00;101630.88;10305126;28;20054;-78
2023/01/06 09:23:37;;;;;;;1999.90;999.90;;;;;;;10.30;100.00;101634.00;10292327;28;20449;-77
2023/01/06 09:28:40;;;;;;;1999.90;999.90;;;;;;;10.47;100.00;101635.94;10291997;28;20061;-74
2023/01/06 09:33:42;;;;;;;1999.90;999.90;;;;;;;10.63;100.00;101636.13;10291290;28;20089;-76
2023/01/06 09:38:45;;;;;;;1999.90;999.90;;;;;;;10.88;100.00;101644.59;10292024;28;20054;-75
2023/01/06 09:44:25;;;;;;;1999.90;999.90;;;;;;;12.45;100.00;101623.88;10296456;28;20047;-76
2023/01/06 09:49:56;;;;;;;1999.90;999.90;;;;;;;13.18;98.84;101630.56;10290600;28;20055;-76
2023/01/06 09:54:59;;;;;;;1999.90;999.90;;;;;;;12.18;100.00;101641.91;10308541;28;20051;-75
2023/01/06 10:00:07;;;;;;;1999.90;999.90;;;;;;;12.31;100.00;101638.69;10292749;28;20046;-76
2023/01/06 10:05:25;;;;;;;1999.90;999.90;;;;;;;12.01;100.00;101641.91;10273783;28;20050;-75
2023/01/06 10:10:48;;;;;;;1999.90;999.90;;;;;;;11.02;100.00;101648.34;10292888;28;20064;-76
2023/01/06 10:16:00;;;;;;;1999.90;999.90;;;;;;;11.15;100.00;101645.09;10290551;28;20050;-75
2023/01/06 10:21:02;;;;;;;1999.90;999.90;;;;;;;10.90;100.00;101650.59;10294578;28;20058;-76
2023/01/06 10:26:10;;;;;;;1999.90;999.90;;;;;;;10.91;100.00;101649.69;10304573;28;20046;-77
2023/01/06 10:31:15;;;;;;;1999.90;999.90;;;;;;;10.63;100.00;101644.81;10302877;28;20047;-76
2023/01/06 10:36:29;;;;;;;1999.90;999.90;;;;;;;10.63;100.00;101652.69;10308910;28;20050;-76
2023/01/06 10:47:27;;;;;;;1999.90;999.90;;;;;;;10.85;100.00;101656.97;10316015;28;20453;-76
2023/01/06 10:52:30;;;;;;;1999.90;999.90;;;;;;;10.82;100.00;101654.47;10293287;28;20054;-76
2023/01/06 10:57:37;;;;;;;1999.90;999.90;;;;;;;10.88;99.60;101651.59;10301161;28;20057;-76
2023/01/06 11:02:47;;;;;;;1999.90;999.90;;;;;;;10.80;99.68;101649.31;10309156;28;20046;-77
2023/01/06 11:08:06;;;;;;;1999.90;999.90;;;;;;;11.70;95.59;101652.13;10292775;28;20450;-76
2023/01/06 11:13:24;;;;;;;1999.90;999.90;;;;;;;11.51;93.06;101652.13;10293442;28;20058;-76
2023/01/06 11:18:31;;;;;;;1999.90;999.90;;;;;;;11.64;89.04;101659.44;10297120;28;20405;-76
2023/01/06 11:23:35;;;;;;;1999.90;999.90;;;;;;;11.77;90.05;101657.03;10300293;28;20058;-76
2023/01/06 11:28:38;;;;;;;1999.90;999.90;;;;;;;11.66;92.22;101661.03;10300073;28;20098;-77
2023/01/06 11:33:53;;;;;;;1999.90;999.90;;;;;;;11.32;92.99;101651.31;10301096;28;20059;-76
2023/01/06 11:39:10;;;;;;;1999.90;999.90;;;;;;;11.46;92.68;101646.25;10300938;28;20057;-77
2023/01/06 11:44:13;;;;;;;1999.90;999.90;;;;;;;11.86;93.53;101654.81;10298507;28;20058;-77
2023/01/06 11:49:24;;;;;;;1999.90;999.90;;;;;;;11.92;89.25;101637.97;10298656;28;20051;-76
2023/01/06 11:54:32;;;;;;;1999.90;999.90;;;;;;;12.64;86.73;101634.28;10300255;28;20074;-76
2023/01/06 11:59:49;;;;;;;1999.90;999.90;;;;;;;13.81;80.79;101629.66;10299475;28;20405;-76
2023/01/06 12:04:52;;;;;;;1999.90;999.90;;;;;;;12.68;83.92;101626.25;10299885;28;20105;-76
2023/01/06 12:09:59;;;;;;;1999.90;999.90;;;;;;;12.80;84.64;101631.69;10299028;28;20057;-76
2023/01/06 12:15:02;;;;;;;1999.90;999.90;;;;;;;12.34;85.77;101638.50;10313859;28;20406;-76
2023/01/06 12:20:18;;;;;;;1999.90;999.90;;;;;;;12.04;87.89;101631.28;10299374;28;20085;-76
2023/01/06 12:25:32;;;;;;;1999.90;999.90;;;;;;;11.74;84.90;101630.97;10313859;28;20094;-76
2023/01/06 12:30:49;;;;;;;1999.90;999.90;;;;;;;12.37;80.53;101622.59;10297736;28;20092;-76
2023/01/06 12:36:03;;;;;;;1999.90;999.90;;;;;;;11.69;81.59;101639.06;10296881;28;20039;-76
2023/01/06 12:41:33;;;;;;;1999.90;999.90;;;;;;;11.56;76.72;101623.06;10305216;28;20401;-77
2023/01/06 12:47:06;;;;;;;1999.90;999.90;;;;;;;11.71;76.72;101624.09;10296343;28;20410;-77
2023/01/06 12:52:14;;;;;;;1999.90;999.90;;;;;;;11.79;77.68;101621.13;10296374;28;20078;-77
2023/01/06 12:57:23;;;;;;;1999.90;999.90;;;;;;;11.68;75.31;101619.00;10312310;28;20043;-77
2023/01/06 13:08:11;;;;;;;1999.90;999.90;;;;;;;12.00;77.45;101632.34;10339134;28;20058;-79
2023/01/06 13:13:32;;;;;;;1999.90;999.90;;;;;;;11.82;75.42;101624.44;10325118;28;20058;-79
2023/01/06 13:18:53;;;;;;;1999.90;999.90;;;;;;;11.89;78.59;101638.94;10338585;28;20054;-80
2023/01/06 13:24:07;;;;;;;1999.90;999.90;;;;;;;11.49;80.54;101635.63;10368624;28;20046;-80
2023/01/06 13:29:32;;;;;;;1999.90;999.90;;;;;;;11.83;80.99;101641.84;10338585;28;20489;-80
2023/01/06 13:34:41;;;;;;;1999.90;999.90;;;;;;;11.78;78.47;101643.00;10366842;28;20054;-80
2023/01/06 13:39:57;;;;;;;1999.90;999.90;;;;;;;11.68;81.30;101637.34;10351218;28;20050;-79
2023/01/06 13:44:59;;;;;;;1999.90;999.90;;;;;;;11.96;80.33;101623.78;10338148;28;20054;-79
2023/01/06 13:50:03;;;;;;;1999.90;999.90;;;;;;;11.96;80.84;101621.16;10335455;28;20444;-80
2023/01/06 13:55:22;;;;;;;1999.90;999.90;;;;;;;12.03;83.64;101616.44;10366740;28;20501;-79
2023/01/06 14:00:28;;;;;;;1999.90;999.90;;;;;;;11.74;83.41;101610.00;10338003;28;20054;-79
2023/01/06 14:05:30;;;;;;;1999.90;999.90;;;;;;;11.85;85.44;101618.16;10294856;28;20058;-79
2023/01/06 14:10:36;;;;;;;1999.90;999.90;;;;;;;11.58;85.31;101615.97;10294539;28;20050;-79
2023/01/06 14:15:54;;;;;;;1999.90;999.90;;;;;;;11.58;87.27;101621.22;10316112;28;20383;-79
2023/01/06 14:21:05;;;;;;;1999.90;999.90;;;;;;;11.52;87.97;101625.00;10334973;28;20046;-79
2023/01/06 14:26:08;;;;;;;;;;;;;;;11.60;88.50;101619.38;10368451;28;20042;-73
2023/01/06 14:31:25;;;;;;;;;;;;;;;11.33;86.79;101614.53;10366657;28;19932;-73
2023/01/06 14:36:30;;;;;;;1999.90;999.90;;;;;;;11.45;87.60;101625.38;10365437;28;19929;-73
2023/01/06 14:41:48;;;;;;;1999.90;999.90;;;;;;;11.45;90.15;101623.59;10365629;28;20057;-73
2023/01/06 14:46:58;;;;;;;1999.90;999.90;;;;;;;11.41;87.24;101592.34;10325433;28;20094;-73
2023/01/06 14:52:09;;;;;;;1999.90;999.90;;;;;;;11.45;90.25;101602.63;10332383;28;20046;-74
2023/01/06 14:57:36;;;;;;;1999.90;999.90;;;;;;;11.36;91.16;101608.28;10365101;28;20536;-73
2023/01/06 15:02:46;;;;;;;1999.90;999.90;;;;;;;11.38;89.74;101601.22;10335033;28;20054;-73
2023/01/06 15:08:27;;;;;;;1999.90;999.90;;;;;;;11.47;89.54;101599.94;10364901;28;20054;-73
2023/01/06 15:13:30;;;;;;;1999.90;999.90;;;;;;;11.29;90.47;101610.34;10313602;28;20089;-73
2023/01/06 15:18:34;;;;;;;1999.90;999.90;;;;;;;10.91;94.55;101601.66;10322937;28;20051;-73
2023/01/06 15:23:43;;;;;;;1999.90;999.90;;;;;;;11.02;96.81;101617.75;10335024;28;20077;-73
2023/01/06 15:29:00;;;;;;;1999.90;999.90;;;;;;;10.78;98.98;101622.34;10364820;28;20108;-73
2023/01/06 15:34:14;;;;;;;1999.90;999.90;;;;;;;10.98;99.05;101616.19;10364007;28;20046;-73
2023/01/06 15:39:22;;;;;;;1999.90;999.90;;;;;;;10.66;100.00;101617.63;10364473;28;20482;-73
2023/01/06 15:44:36;;;;;;;1999.90;999.90;;;;;;;10.06;100.00;101614.97;10364215;28;20061;-73
2023/01/06 15:49:55;;;;;;;1999.90;999.90;;;;;;;10.20;100.00;101620.47;10365394;28;20053;-73
2023/01/06 15:55:02;;;;;;;1999.90;999.90;;;;;;;10.54;100.00;101621.66;10333072;28;20061;-73
2023/01/06 16:00:20;;;;;;;1999.90;999.90;;;;;;;9.86;100.00;101637.56;10364393;28;20050;-73
2023/01/06 16:05:33;;;;;;;1999.90;999.90;;;;;;;9.95;100.00;101628.50;10367209;28;20433;-73
2023/01/06 16:10:37;;;;;;;1999.90;999.90;;;;;;;9.84;100.00;101623.72;10342476;28;20050;-73
2023/01/06 16:15:48;;;;;;;68.60;65.43;;;;;;;9.73;100.00;101621.53;10342718;28;20504;-73
2023/01/06 16:20:51;;;;;;;85.28;81.57;;;;;;;9.79;100.00;101620.44;10319177;28;20050;-73
2023/01/06 16:26:04;;;;;;;75.70;72.45;;;;;;;9.45;100.00;101621.81;10336308;28;20050;-74
2023/01/06 16:31:12;;;;;;;83.45;79.85;;;;;;;9.18;100.00;101619.34;10361567;28;20046;-73
2023/01/06 16:36:16;;;;;;;90.03;86.13;;;;;;;9.39;100.00;101624.66;10353682;28;20045;-73
2023/01/06 16:41:19;;;;;;;68.25;65.35;;;;;;;9.34;100.00;101622.22;10338874;28;20061;-73
2023/01/06 16:46:26;;;;;;;86.15;82.45;;;;;;;9.25;100.00;101619.97;10337073;28;20050;-73
2023/01/06 16:51:29;;;;;;;162.65;155.27;;;;;;;9.02;100.00;101618.22;10335653;28;20133;-73
2023/01/06 16:56:31;;;;;;;137.23;131.05;;;;;;;9.61;100.00;101617.63;10335271;28;20046;-73
2023/01/06 17:01:35;;;;;;;146.95;140.30;;;;;;;9.48;100.00;101608.59;10366919;28;20057;-73
2023/01/06 17:06:39;;;;;;;147.75;141.05;;;;;;;9.32;100.00;101621.41;10298070;28;1123308;-73
2023/01/06 17:11:42;;;;;;;194.98;186.18;;;;;;;9.32;100.00;101625.81;10368365;28;20050;-73
2023/01/06 17:16:46;;;;;;;206.25;197.05;;;;;;;9.49;100.00;101625.97;10345912;28;20053;-73
2023/01/06 17:21:51;;;;;;;183.02;174.70;;;;;;;9.85;100.00;101622.78;10335636;28;20133;-73
2023/01/06 17:27:22;;;;;;;198.18;189.27;;;;;;;9.66;100.00;101620.91;10366161;28;20078;-73
2023/01/06 17:32:30;;;;;;;192.15;183.48;;;;;;;9.81;100.00;101629.06;10337474;28;20053;-73
2023/01/06 17:37:32;;;;;;;197.02;188.15;;;;;;;9.73;100.00;101631.97;10336889;28;20100;-73
2023/01/06 17:42:34;;;;;;;209.38;199.98;;;;;;;10.11;100.00;101632.19;10348670;28;20092;-78
2023/01/06 17:47:49;;;;;;;224.48;214.40;;;;;;;10.06;100.00;101625.44;10336346;28;20057;-77
2023/01/06 17:58:18;;;;;;;230.23;219.98;;;;;;;10.20;100.00;101623.94;10363556;28;20046;-77
2023/01/06 18:03:31;;;;;;;216.68;207.00;;;;;;;10.37;100.00;101620.63;10333395;28;20058;-77
2023/01/06 18:08:37;;;;;;;198.23;189.32;;;;;;;10.36;100.00;101625.94;10332934;28;20097;-77
2023/01/06 18:13:41;;;;;;;205.98;196.73;;;;;;;10.50;100.00;101633.19;10365676;28;20060;-77
2023/01/06 18:18:43;;;;;;;235.65;225.15;;;;;;;10.60;100.00;101622.22;10365619;28;20054;-77
2023/01/06 18:23:51;;;;;;;177.82;169.73;;;;;;;10.56;100.00;101632.94;10334568;28;20490;-77
2023/01/06 18:28:58;;;;;;;169.82;162.07;;;;;;;10.48;100.00;101635.03;10315936;28;20547;-77
2023/01/06 18:34:01;;;;;;;171.18;163.45;;;;;;;10.56;100.00;101633.78;10365727;28;20064;-77
2023/01/06 18:39:03;;;;;;;175.60;167.68;;;;;;;10.63;100.00;101630.88;10372568;28;20504;-77
2023/01/06 18:44:14;;;;;;;172.43;164.57;;;;;;;10.60;100.00;101622.22;10329924;28;20096;-78
2023/01/06 18:49:17;;;;;;;1557.68;804.50;;;;;;;10.73;100.00;101616.47;10322789;28;20098;-77
2023/01/06 18:54:21;;;;;;;1999.90;999.90;;;;;;;10.60;100.00;101600.44;10338962;28;20054;-77
2023/01/06 18:59:27;;;;;;;1999.90;999.90;;;;;;;10.55;100.00;101607.66;10333408;28;20387;-77
2023/01/06 19:04:31;;;;;;;1999.90;999.90;;;;;;;10.71;100.00;101611.28;10335113;28;20081;-77
2023/01/06 19:09:38;;;;;;;1999.90;999.90;;;;;;;10.78;100.00;101615.31;10333460;28;20077;-77
2023/01/06 19:14:42;;;;;;;1999.90;999.90;;;;;;;11.01;100.00;101615.19;10348995;28;20101;-78
2023/01/06 19:19:45;;;;;;;1999.90;999.90;;;;;;;11.14;100.00;101611.91;10347946;28;20050;-78
2023/01/06 19:24:49;;;;;;;1999.90;999.90;;;;;;;10.86;100.00;101617.59;10366450;28;20050;-78
2023/01/06 19:29:53;;;;;;;1999.90;999.90;;;;;;;10.90;100.00;101616.53;10332895;28;20073;-71
2023/01/06 19:34:55;;;;;;;1999.90;999.90;;;;;;;10.97;100.00;101601.38;10365236;28;20073;-68
2023/01/06 19:39:57;;;;;;;1999.90;999.90;;;;;;;11.03;100.00;101597.63;10340313;28;20047;-68
2023/01/06 19:45:01;;;;;;;1999.90;999.90;;;;;;;11.04;100.00;101609.81;10341016;28;20051;-68
2023/01/06 19:50:20;;;;;;;1999.90;999.90;;;;;;;11.09;100.00;101613.06;10372108;28;20046;-68
2023/01/06 19:55:24;;;;;;;1999.90;999.90;;;;;;;10.98;100.00;101595.22;10373539;28;20069;-68
2023/01/06 20:00:41;;;;;;;1999.90;999.90;;;;;;;10.91;100.00;101599.91;10300113;28;20098;-68
2023/01/06 20:05:44;;;;;;;1999.90;999.90;;;;;;;10.97;100.00;101598.75;10354962;28;20152;-68
2023/01/06 20:10:46;;;;;;;1999.90;999.90;;;;;;;10.78;100.00;101606.63;10339933;28;20058;-68
2023/01/06 20:15:48;;;;;;;1999.90;999.90;;;;;;;10.68;100.00;101613.19;10369402;28;20493;-67
2023/01/06 20:20:51;;;;;;;1999.90;999.90;;;;;;;10.60;100.00;101621.38;10339520;28;20073;-67
2023/01/06 20:25:53;;;;;;;1999.90;999.90;;;;;;;10.71;100.00;101627.00;10339155;28;20413;-68
2023/01/06 20:30:55;;;;;;;1999.90;999.90;;;;;;;10.76;100.00;101618.94;10338073;28;20383;-68
2023/01/06 20:35:58;;;;;;;1999.90;999.90;;;;;;;10.83;100.00;101614.28;10338996;28;20101;-67
2023/01/06 20:41:00;;;;;;;1999.90;999.90;;;;;;;10.82;100.00;101612.56;10338229;28;20394;-67
2023/01/06 20:46:03;;;;;;;1999.90;999.90;;;;;;;10.76;100.00;101600.63;10340477;28;20046;-67
2023/01/06 20:51:06;;;;;;;1999.90;999.90;;;;;;;10.87;100.00;101603.56;10337338;28;20054;-67
2023/01/06 20:56:08;;;;;;;1999.90;999.90;;;;;;;10.83;100.00;101585.47;10337221;28;20456;-67
2023/01/06 21:01:10;;;;;;;1999.90;999.90;;;;;;;10.75;100.00;101586.66;10339703;28;20050;-67
2023/01/06 21:06:13;;;;;;;1999.90;999.90;;;;;;;10.78;100.00;101588.28;10336876;28;20058;-67
2023/01/06 21:11:16;;;;;;;1999.90;999.90;;;;;;;10.76;100.00;101592.75;10337016;28;20485;-67
2023/01/06 21:16:20;;;;;;;1999.90;999.90;;;;;;;10.84;100.00;101595.84;10337414;28;20058;-67
2023/01/06 21:21:22;;;;;;;1999.90;999.90;;;;;;;10.76;100.00;101601.47;10339013;28;20050;-67
2023/01/06 21:26:25;;;;;;;1999.90;999.90;;;;;;;10.92;100.00;101585.88;10337592;28;20054;-67
2023/01/06 21:31:27;;;;;;;1999.90;999.90;;;;;;;11.00;100.00;101587.31;10336916;28;20454;-67
2023/01/06 21:36:29;;;;;;;1999.90;999.90;;;;;;;10.74;100.00;101597.19;10336068;28;20046;-67
2023/01/06 21:46:56;;;;;;;1999.90;999.90;;;;;;;11.03;100.00;101597.63;10338187;28;20097;-67
2023/01/06 21:51:59;;;;;;;1999.90;999.90;;;;;;;10.91;100.00;101599.91;10336044;28;20096;-67
2023/01/06 21:57:02;;;;;;;1999.90;999.90;;;;;;;11.06;100.00;101590.50;10365916;28;20053;-67
2023/01/06 22:02:05;;;;;;;1999.90;999.90;;;;;;;10.84;100.00;101602.88;10366436;28;20053;-67
2023/01/06 22:07:08;;;;;;;1999.90;999.90;;;;;;;10.72;100.00;101601.66;10335035;28;20050;-68
2023/01/06 22:12:13;;;;;;;1999.90;999.90;;;;;;;10.86;100.00;101603.63;10365227;28;20062;-68
2023/01/06 22:17:15;;;;;;;1999.90;999.90;;;;;;;10.93;100.00;101605.91;10366625;28;20047;-67
2023/01/06 22:22:20;;;;;;;1999.90;999.90;;;;;;;10.76;100.00;101600.63;10365715;28;20050;-67
2023/01/06 22:27:23;;;;;;;1999.90;999.90;;;;;;;10.81;100.00;101603.88;10337717;28;20092;-67
2023/01/06 22:32:27;;;;;;;1999.90;999.90;;;;;;;10.96;100.00;101602.28;10335326;28;20070;-67
2023/01/06 22:37:29;;;;;;;1999.90;999.90;;;;;;;10.89;100.00;101604.38;10334532;28;20051;-68